Time;durP1;ratioP1;P1;durP2;ratioP2;P2;SDS_P1;SDS_P2;PMS_P1;PMS_P2;Temp;Humidity;BMP_temperature;BMP_pressure;BME280_temperature;BME280_humidity;BME280_pressure;Samples;Min_cycle;Max_cycle;Signal;HPM_P1;HPM_P2
2021/12/29 00:00:38;;;;;;;5.80;2.58;;;;;;;7.05;78.95;98960.97;4964517;28;20058;-53
2021/12/29 00:03:05;;;;;;;3.97;1.77;;;;;;;7.00;79.87;98960.16;4969637;28;20046;-54
2021/12/29 00:05:32;;;;;;;4.70;1.88;;;;;;;6.96;80.53;98967.91;4965430;28;20047;-53
2021/12/29 00:08:00;;;;;;;3.65;2.00;;;;;;;6.92;79.90;98959.31;4963929;28;20106;-55
2021/12/29 00:10:27;;;;;;;5.25;1.67;;;;;;;6.87;78.97;98959.38;4963588;28;20054;-50
2021/12/29 00:12:55;;;;;;;3.05;2.05;;;;;;;6.81;79.56;98974.81;4965216;28;20047;-54
2021/12/29 00:15:25;;;;;;;3.67;1.83;;;;;;;6.76;80.02;98967.13;4964399;28;20050;-57
2021/12/29 00:17:53;;;;;;;7.28;2.00;;;;;;;6.71;78.97;98953.44;4966802;28;20047;-57
2021/12/29 00:20:24;;;;;;;4.47;2.05;;;;;;;6.65;80.23;98933.72;4963615;28;20073;-52
2021/12/29 00:22:51;;;;;;;14.82;3.85;;;;;;;6.60;80.62;98948.34;4963152;28;21361;-55
2021/12/29 00:25:17;;;;;;;17.15;5.20;;;;;;;6.57;80.03;98966.34;4965703;28;20120;-55
2021/12/29 00:27:44;;;;;;;20.08;5.65;;;;;;;6.53;80.42;98974.94;4943316;28;20042;-54
2021/12/29 00:30:12;;;;;;;132.43;29.02;;;;;;;6.48;80.73;98961.25;4949328;28;20396;-54
2021/12/29 00:32:39;;;;;;;166.57;37.67;;;;;;;6.43;79.48;98951.81;4945416;28;20043;-58
2021/12/29 00:35:11;;;;;;;144.80;31.20;;;;;;;6.38;80.23;98940.69;4944399;28;20040;-50
2021/12/29 00:37:39;;;;;;;104.30;25.33;;;;;;;6.33;79.84;98942.44;4978492;28;20035;-52
2021/12/29 00:40:06;;;;;;;101.75;22.70;;;;;;;6.28;80.66;98954.44;4965546;28;20551;-54
2021/12/29 00:42:34;;;;;;;95.32;21.95;;;;;;;6.23;79.92;98953.59;4964774;28;20058;-58
2021/12/29 00:45:00;;;;;;;111.95;25.48;;;;;;;6.15;78.80;98949.31;4965768;28;20070;-50
2021/12/29 00:47:31;;;;;;;100.38;22.15;;;;;;;6.07;78.86;98945.91;4967387;28;20137;-52
2021/12/29 00:50:00;;;;;;;71.32;17.27;;;;;;;6.01;79.28;98936.47;4965494;28;20051;-55
2021/12/29 00:52:27;;;;;;;47.75;11.32;;;;;;;5.97;80.51;98942.47;4964138;28;20043;-54
2021/12/29 00:54:53;;;;;;;56.33;13.20;;;;;;;5.92;79.66;98942.47;4969364;28;20059;-52
2021/12/29 00:57:20;;;;;;;132.35;29.77;;;;;;;5.86;80.28;98939.94;4965845;28;20042;-58
2021/12/29 00:59:47;;;;;;;193.52;43.83;;;;;;;5.82;79.99;98945.94;4964991;28;20054;-57
2021/12/29 01:02:13;;;;;;;176.18;39.58;;;;;;;5.79;79.61;98957.09;4965921;28;20063;-52
2021/12/29 01:04:40;;;;;;;87.05;18.58;;;;;;;5.76;79.76;98967.34;4966484;28;20071;-55
2021/12/29 01:07:07;;;;;;;42.25;9.20;;;;;;;5.73;80.37;98976.75;4965381;28;20121;-54
2021/12/29 01:09:33;;;;;;;21.98;5.40;;;;;;;5.72;80.07;98985.34;4963794;28;20121;-51
2021/12/29 01:12:00;;;;;;;10.90;3.83;;;;;;;5.70;79.83;98976.75;4968699;28;20118;-55
2021/12/29 01:14:30;;;;;;;7.53;2.10;;;;;;;5.66;80.31;98971.66;4966411;28;20542;-55
2021/12/29 01:16:58;;;;;;;6.03;2.05;;;;;;;5.66;79.46;98963.06;4963993;28;20121;-52
2021/12/29 01:19:29;;;;;;;6.78;2.75;;;;;;;5.64;80.34;98947.66;4968137;28;20050;-51
2021/12/29 01:22:03;;;;;;;7.32;1.75;;;;;;;5.62;80.60;98931.41;4973470;28;20102;-57
2021/12/29 01:24:30;;;;;;;4.13;2.00;;;;;;;5.61;80.49;98944.25;4969007;28;20047;-53
2021/12/29 01:26:57;;;;;;;4.20;1.48;;;;;;;5.60;79.75;98945.94;4972118;28;20066;-57
2021/12/29 01:29:28;;;;;;;3.42;1.42;;;;;;;5.60;79.67;98952.78;4969000;28;20074;-57
2021/12/29 01:31:57;;;;;;;4.35;1.95;;;;;;;5.58;80.13;98942.53;4969091;28;20151;-55
2021/12/29 01:34:24;;;;;;;5.97;1.80;;;;;;;5.56;79.56;98939.09;4969308;28;20118;-54
2021/12/29 01:36:51;;;;;;;6.40;2.20;;;;;;;5.57;79.96;98945.09;4970408;28;20058;-54
2021/12/29 01:39:19;;;;;;;3.67;1.88;;;;;;;5.55;80.87;98941.66;4969246;28;20054;-55
2021/12/29 01:41:49;;;;;;;9.15;1.88;;;;;;;5.52;79.47;98942.53;4971501;28;20395;-47
2021/12/29 01:44:17;;;;;;;160.75;22.95;;;;;;;5.52;80.62;98945.09;4972145;28;20055;-52
2021/12/29 01:46:45;;;;;;;245.35;38.15;;;;;;;5.52;79.97;98945.97;4968894;28;20109;-55
2021/12/29 01:49:12;;;;;;;445.00;64.88;;;;;;;5.55;80.21;98947.66;4972807;28;20057;-53
2021/12/29 01:51:48;;;;;;;290.67;44.22;;;;;;;5.57;80.72;98951.06;4969599;28;20055;-51
2021/12/29 01:54:23;;;;;;;113.18;20.60;;;;;;;5.61;80.29;98963.06;4968358;28;20055;-54
2021/12/29 01:56:53;;;;;;;39.83;7.57;;;;;;;5.63;80.69;98966.50;4969071;28;20055;-51
2021/12/29 01:59:22;;;;;;;16.05;3.13;;;;;;;5.65;80.39;98972.47;4964347;28;20050;-56
2021/12/29 02:01:49;;;;;;;42.35;7.25;;;;;;;5.66;80.46;98981.91;4967582;28;20070;-51
2021/12/29 02:04:16;;;;;;;132.63;23.25;;;;;;;5.68;80.52;98988.75;4966941;28;20051;-54
2021/12/29 02:06:43;;;;;;;95.72;15.23;;;;;;;5.71;80.68;98983.63;4968867;28;20063;-51
2021/12/29 02:09:10;;;;;;;65.13;11.88;;;;;;;5.70;79.42;98971.63;4968572;28;20046;-52
2021/12/29 02:11:38;;;;;;;26.27;5.88;;;;;;;5.72;79.78;98980.19;4969381;28;20054;-52
2021/12/29 02:14:07;;;;;;;7.80;2.22;;;;;;;5.72;79.87;98977.63;4968801;28;20042;-55
2021/12/29 02:16:34;;;;;;;5.93;1.98;;;;;;;5.71;80.02;98983.63;4967119;28;20113;-54
2021/12/29 02:19:04;;;;;;;7.07;2.15;;;;;;;5.71;79.65;98973.34;4966783;28;20059;-55
2021/12/29 02:21:32;;;;;;;;;;;;;;;5.63;79.44;98973.34;4968169;28;20466;-58
2021/12/29 02:24:17;;;;;;;5.07;2.25;;;;;;;5.70;79.98;98976.75;4971789;28;19990;-50
2021/12/29 02:26:46;;;;;;;5.90;1.75;;;;;;;5.71;80.02;98984.47;4966082;28;20043;-47
2021/12/29 02:29:16;;;;;;;4.47;1.65;;;;;;;5.72;80.08;98986.19;4966714;28;20042;-48
2021/12/29 02:31:45;;;;;;;9.23;1.85;;;;;;;5.74;79.88;98973.34;4967209;28;20050;-49
2021/12/29 02:34:15;;;;;;;4.47;1.88;;;;;;;5.74;80.57;98963.91;4964493;28;20491;-54
2021/12/29 02:36:44;;;;;;;;;;;;;;;5.66;79.51;98955.34;4968171;28;20614;-57
2021/12/29 02:39:15;;;;;;;192.70;32.10;;;;;;;5.71;80.24;98955.38;4965124;28;19929;-55
2021/12/29 02:41:46;;;;;;;213.18;43.10;;;;;;;5.70;79.28;98957.06;4969101;28;20049;-51
2021/12/29 02:44:18;;;;;;;189.57;36.10;;;;;;;5.69;80.12;98942.53;4967388;28;20046;-53
2021/12/29 02:46:44;;;;;;;125.13;25.73;;;;;;;5.67;80.37;98936.50;4966701;28;20101;-48
2021/12/29 02:49:12;;;;;;;102.75;19.17;;;;;;;5.64;79.93;98932.22;4968816;28;20054;-55
2021/12/29 02:51:39;;;;;;;76.03;13.65;;;;;;;5.64;79.33;98927.09;4948699;28;20058;-55
2021/12/29 02:54:06;;;;;;;37.15;8.68;;;;;;;5.61;80.25;98932.22;4949101;28;20050;-51
2021/12/29 02:56:33;;;;;;;39.13;8.77;;;;;;;5.57;80.02;98935.66;4943260;28;20114;-54
2021/12/29 02:58:59;;;;;;;70.20;14.35;;;;;;;5.56;80.62;98933.97;4945200;28;20067;-50
2021/12/29 03:01:27;;;;;;;167.85;35.88;;;;;;;5.53;80.51;98928.81;4948586;28;20059;-53
2021/12/29 03:03:57;;;;;;;202.02;44.92;;;;;;;5.54;80.26;98938.22;4949364;28;20047;-55
2021/12/29 03:06:26;;;;;;;188.70;45.00;;;;;;;5.53;80.48;98942.53;4945637;28;20055;-55
2021/12/29 03:08:53;;;;;;;152.32;35.92;;;;;;;5.55;79.92;98942.53;4949087;28;20048;-56
2021/12/29 03:11:19;;;;;;;114.50;27.90;;;;;;;5.57;79.58;98930.53;4942939;28;20074;-54
2021/12/29 03:13:46;;;;;;;85.50;19.25;;;;;;;5.60;79.41;98927.97;4951987;28;20129;-55
2021/12/29 03:16:13;;;;;;;111.07;25.73;;;;;;;5.61;79.71;98916.81;4945059;28;20060;-51
2021/12/29 03:18:41;;;;;;;131.55;31.70;;;;;;;5.60;79.65;98915.13;4949119;28;20087;-52
2021/12/29 03:21:08;;;;;;;126.20;32.13;;;;;;;5.56;79.40;98926.25;4949186;28;20050;-53
2021/12/29 03:23:35;;;;;;;91.45;21.60;;;;;;;5.55;80.44;98927.13;4944206;28;20043;-53
2021/12/29 03:26:02;;;;;;;62.65;15.13;;;;;;;5.53;79.23;98921.97;4945382;28;20079;-56
2021/12/29 03:28:29;;;;;;;64.28;14.57;;;;;;;5.53;79.71;98908.25;4946523;28;20466;-51
2021/12/29 03:30:56;;;;;;;66.97;14.82;;;;;;;5.53;80.23;98906.56;4964942;28;20054;-54
2021/12/29 03:33:28;;;;;;;64.30;17.25;;;;;;;5.53;79.08;98910.84;4963970;28;20040;-55
2021/12/29 03:36:00;;;;;;;61.03;15.43;;;;;;;5.52;79.47;98911.69;4963960;28;20054;-53
2021/12/29 03:38:29;;;;;;;39.80;10.05;;;;;;;5.53;79.34;98913.41;4961821;28;20138;-47
2021/12/29 03:40:57;;;;;;;26.35;5.95;;;;;;;5.53;79.70;98914.28;4963962;28;20046;-50
2021/12/29 03:43:26;;;;;;;22.48;5.50;;;;;;;5.56;79.59;98918.53;4966305;28;20039;-54
2021/12/29 03:45:54;;;;;;;17.90;4.38;;;;;;;5.55;80.05;98927.13;4971605;28;20109;-52
2021/12/29 03:48:23;;;;;;;17.48;4.93;;;;;;;5.56;79.77;98926.25;4963810;28;20090;-52
2021/12/29 03:50:50;;;;;;;18.48;4.47;;;;;;;5.56;80.35;98910.84;4964455;28;20049;-51
2021/12/29 03:53:17;;;;;;;20.88;4.43;;;;;;;5.55;79.40;98901.44;4972152;28;20071;-55
2021/12/29 03:55:46;;;;;;;17.50;4.38;;;;;;;5.50;79.63;98885.16;4966440;28;20047;-55
2021/12/29 03:58:12;;;;;;;23.17;4.68;;;;;;;5.46;79.68;98892.00;4963588;28;20549;-52
2021/12/29 04:00:39;;;;;;;16.30;3.95;;;;;;;5.43;80.00;98893.75;4957285;28;20054;-50
2021/12/29 04:03:06;;;;;;;15.25;4.63;;;;;;;5.41;79.71;98878.31;4964751;28;20038;-49
2021/12/29 04:05:34;;;;;;;13.65;4.63;;;;;;;5.39;79.59;98870.63;4959199;28;20507;-51
2021/12/29 04:08:02;;;;;;;11.13;3.60;;;;;;;5.41;80.00;98873.19;4964729;28;20066;-51
2021/12/29 04:10:29;;;;;;;10.02;3.25;;;;;;;5.40;80.00;98872.31;4965015;28;20062;-51
2021/12/29 04:12:56;;;;;;;11.73;3.42;;;;;;;5.41;80.74;98865.50;4962331;28;20055;-53
2021/12/29 04:15:25;;;;;;;9.10;3.10;;;;;;;5.43;80.84;98862.91;4964906;28;20058;-50
2021/12/29 04:17:57;;;;;;;10.98;3.67;;;;;;;5.42;80.11;98880.03;4963692;28;20046;-48
2021/12/29 04:23:14;;;;;;;;;;;;;;;5.38;80.61;98853.47;4960495;28;20043;-50
2021/12/29 04:25:44;;;;;;;9.40;2.35;;;;;;;5.45;81.02;98841.50;4965825;28;19922;-53
2021/12/29 04:28:16;;;;;;;8.55;2.30;;;;;;;5.45;80.43;98832.94;4964693;28;20054;-48
2021/12/29 04:30:42;;;;;;;9.45;2.53;;;;;;;5.48;80.29;98826.09;4963778;28;20042;-54
2021/12/29 04:33:09;;;;;;;8.00;2.25;;;;;;;5.48;80.78;98827.81;4968083;28;20696;-48
2021/12/29 04:35:36;;;;;;;10.57;2.83;;;;;;;5.49;80.37;98834.66;4968650;28;20070;-53
2021/12/29 04:38:03;;;;;;;8.30;2.33;;;;;;;5.51;80.39;98838.09;4967658;28;20440;-54
2021/12/29 04:40:30;;;;;;;7.03;2.53;;;;;;;5.51;81.01;98838.09;4963999;28;20062;-51
2021/12/29 04:42:57;;;;;;;6.95;3.08;;;;;;;5.53;81.07;98833.78;4965570;28;20047;-51
2021/12/29 04:45:27;;;;;;;4.60;2.20;;;;;;;5.55;80.84;98819.22;4968538;28;20051;-52
2021/12/29 04:47:54;;;;;;;7.20;3.17;;;;;;;5.57;81.55;98817.50;4973011;28;20054;-54
2021/12/29 04:50:26;;;;;;;6.53;2.65;;;;;;;5.57;80.65;98822.63;4969042;28;20101;-50
2021/12/29 04:52:56;;;;;;;6.82;2.55;;;;;;;5.59;81.38;98825.22;4972352;28;20050;-52
2021/12/29 04:55:23;;;;;;;;;;;;;;;5.55;80.83;98831.22;4967657;28;20098;-52
2021/12/29 04:57:49;;;;;;;8.48;3.15;;;;;;;5.61;80.69;98829.47;4967775;28;19980;-52
2021/12/29 05:00:20;;;;;;;9.65;3.63;;;;;;;5.66;81.98;98838.06;4967277;28;20097;-53
2021/12/29 05:02:48;;;;;;;10.98;3.40;;;;;;;5.70;81.04;98836.31;4971548;28;20101;-50
2021/12/29 05:05:27;;;;;;;8.75;3.30;;;;;;;5.72;81.71;98820.91;4973762;28;20038;-54
2021/12/29 05:10:41;;;;;;;8.77;2.75;;;;;;;5.79;81.72;98820.03;4967546;28;20097;-53
2021/12/29 05:13:08;;;;;;;10.13;2.80;;;;;;;5.81;81.57;98827.72;4970725;28;20530;-52
2021/12/29 05:15:34;;;;;;;10.07;3.35;;;;;;;5.83;82.08;98819.16;4970654;28;20050;-55
2021/12/29 05:18:02;;;;;;;12.23;2.88;;;;;;;5.86;80.53;98814.00;4971799;28;20133;-56
2021/12/29 05:20:29;;;;;;;6.75;3.05;;;;;;;5.91;82.30;98811.41;4969733;28;20046;-53
2021/12/29 05:22:58;;;;;;;12.85;4.38;;;;;;;5.92;82.24;98806.25;4969349;28;20047;-54
2021/12/29 05:25:26;;;;;;;15.45;4.65;;;;;;;5.91;81.67;98807.13;4969785;28;20050;-53
2021/12/29 05:27:53;;;;;;;13.38;4.47;;;;;;;5.95;81.27;98800.28;4967465;28;20051;-52
2021/12/29 05:30:22;;;;;;;14.75;4.60;;;;;;;5.97;81.78;98800.25;4967308;28;20102;-51
2021/12/29 05:32:49;;;;;;;12.50;4.00;;;;;;;5.98;82.72;98804.53;4963621;28;20046;-51
2021/12/29 05:35:16;;;;;;;12.75;3.78;;;;;;;6.01;81.10;98810.50;4966433;28;20050;-55
2021/12/29 05:37:43;;;;;;;13.07;3.42;;;;;;;6.04;81.43;98796.81;4968358;28;20718;-52
2021/12/29 05:40:10;;;;;;;14.32;4.15;;;;;;;6.03;81.62;98795.09;4967448;28;20050;-55
2021/12/29 05:42:37;;;;;;;18.08;4.07;;;;;;;6.06;83.21;98783.97;4967265;28;20051;-51
2021/12/29 05:45:07;;;;;;;17.52;4.35;;;;;;;6.06;82.47;98774.56;4964881;28;20731;-50
2021/12/29 05:47:34;;;;;;;20.38;4.82;;;;;;;6.08;82.08;98777.94;4966216;28;20051;-49
2021/12/29 05:50:04;;;;;;;20.70;4.13;;;;;;;6.08;83.13;98771.97;4967613;28;20648;-52
2021/12/29 05:52:31;;;;;;;15.00;4.50;;;;;;;6.09;82.80;98774.53;4968413;28;20062;-55
2021/12/29 05:54:58;;;;;;;17.52;4.85;;;;;;;6.10;83.03;98763.38;4969204;28;20054;-51
2021/12/29 05:57:25;;;;;;;12.63;4.10;;;;;;;6.15;82.73;98764.22;4969942;28;20043;-52
2021/12/29 05:59:52;;;;;;;18.60;3.83;;;;;;;6.18;82.66;98763.34;4969923;28;20487;-53
2021/12/29 06:02:18;;;;;;;15.93;4.63;;;;;;;6.20;82.06;98751.34;4968094;28;20050;-52
2021/12/29 06:04:45;;;;;;;11.82;3.63;;;;;;;6.21;82.01;98741.91;4970051;28;20125;-52
2021/12/29 06:07:13;;;;;;;16.02;4.15;;;;;;;6.23;83.20;98735.91;4968093;28;20078;-56
2021/12/29 06:09:40;;;;;;;15.77;3.63;;;;;;;6.24;83.52;98736.72;4967531;28;20053;-51
2021/12/29 06:12:08;;;;;;;15.43;2.83;;;;;;;6.25;83.42;98723.03;4965602;28;20097;-54
2021/12/29 06:14:34;;;;;;;12.75;3.05;;;;;;;6.28;82.42;98717.84;4970610;28;20090;-51
2021/12/29 06:17:02;;;;;;;17.25;3.67;;;;;;;6.31;82.41;98702.41;4965729;28;20043;-50
2021/12/29 06:19:30;;;;;;;10.60;3.83;;;;;;;6.33;82.46;98710.09;4967176;28;20126;-58
2021/12/29 06:21:57;;;;;;;13.30;2.67;;;;;;;6.33;83.65;98716.13;4965646;28;20526;-50
2021/12/29 06:24:23;;;;;;;12.15;3.13;;;;;;;6.36;83.29;98710.97;4968993;28;20085;-56
2021/12/29 06:26:50;;;;;;;8.90;2.25;;;;;;;6.41;84.56;98713.47;4970081;28;20920;-54
2021/12/29 06:29:17;;;;;;;10.20;3.53;;;;;;;6.43;83.66;98725.44;4967464;28;20459;-55
2021/12/29 06:31:46;;;;;;;8.18;2.85;;;;;;;6.47;83.39;98722.88;4969119;28;20173;-53
2021/12/29 06:34:13;;;;;;;5.43;2.35;;;;;;;6.52;84.48;98731.41;4966822;28;20038;-55
2021/12/29 06:36:40;;;;;;;13.50;2.85;;;;;;;6.53;83.09;98728.84;4970438;28;20082;-53
2021/12/29 06:39:07;;;;;;;12.25;3.30;;;;;;;6.56;82.87;98722.81;4968965;28;20105;-52
2021/12/29 06:41:33;;;;;;;13.35;2.72;;;;;;;6.60;83.23;98739.94;4967116;28;20055;-51
2021/12/29 06:44:01;;;;;;;8.60;2.33;;;;;;;6.60;83.36;98734.78;4960767;28;20051;-55
2021/12/29 06:46:27;;;;;;;10.50;2.92;;;;;;;6.63;83.85;98728.75;4967520;28;20054;-54
2021/12/29 06:48:54;;;;;;;8.90;2.20;;;;;;;6.65;84.63;98717.59;4966695;28;20718;-52
2021/12/29 06:51:21;;;;;;;9.98;2.80;;;;;;;6.67;83.58;98709.84;4963754;28;20043;-53
2021/12/29 06:53:48;;;;;;;11.15;3.17;;;;;;;6.71;83.47;98711.53;4963341;28;20462;-49
2021/12/29 06:56:14;;;;;;;5.93;2.58;;;;;;;6.69;83.82;98716.69;4962249;28;20121;-50
2021/12/29 06:58:41;;;;;;;6.93;2.20;;;;;;;6.71;84.25;98710.66;4966357;28;20655;-51
2021/12/29 07:01:08;;;;;;;9.68;2.45;;;;;;;6.73;83.47;98698.66;4963950;28;20149;-53
2021/12/29 07:03:35;;;;;;;7.55;2.15;;;;;;;6.74;83.96;98696.06;4963452;28;20055;-49
2021/12/29 07:06:02;;;;;;;7.05;2.25;;;;;;;6.76;84.54;98683.19;4967302;28;20145;-54
2021/12/29 07:08:28;;;;;;;8.38;2.45;;;;;;;6.78;83.11;98673.72;4968301;28;20046;-50
2021/12/29 07:10:55;;;;;;;8.10;3.10;;;;;;;6.79;83.43;98672.88;4969388;28;20463;-54
2021/12/29 07:13:22;;;;;;;11.10;2.35;;;;;;;6.80;83.40;98687.44;4964872;28;20039;-56
2021/12/29 07:15:49;;;;;;;8.38;2.28;;;;;;;6.82;84.86;98677.97;4966719;28;20584;-54
2021/12/29 07:18:15;;;;;;;10.13;2.25;;;;;;;6.85;84.25;98666.81;4967390;28;20126;-55
2021/12/29 07:20:44;;;;;;;13.00;2.40;;;;;;;6.83;83.93;98661.69;4964762;28;20751;-51
2021/12/29 07:23:11;;;;;;;11.80;1.90;;;;;;;6.87;83.88;98670.22;4965795;28;20065;-52
2021/12/29 07:25:38;;;;;;;12.00;2.05;;;;;;;6.87;84.00;98676.22;4968007;28;20420;-57
2021/12/29 07:28:05;;;;;;;12.77;2.13;;;;;;;6.90;84.06;98659.91;4969595;28;20059;-57
2021/12/29 07:30:31;;;;;;;7.65;2.25;;;;;;;6.88;85.02;98661.63;4965342;28;20051;-53
2021/12/29 07:32:58;;;;;;;6.65;2.08;;;;;;;6.90;85.00;98649.59;4964448;28;20675;-52
2021/12/29 07:35:26;;;;;;;6.97;2.22;;;;;;;6.92;84.00;98643.56;4967478;28;20062;-49
2021/12/29 07:37:53;;;;;;;9.00;2.95;;;;;;;6.91;84.64;98634.13;4966372;28;20055;-57
2021/12/29 07:40:19;;;;;;;5.13;1.95;;;;;;;6.96;83.72;98630.66;4967351;28;20047;-48
2021/12/29 07:42:46;;;;;;;13.65;2.15;;;;;;;6.96;83.45;98630.66;4965842;28;20055;-53
2021/12/29 07:45:13;;;;;;;6.10;2.22;;;;;;;6.96;83.85;98621.22;4965935;28;20043;-55
2021/12/29 07:47:46;;;;;;;6.97;2.13;;;;;;;6.98;84.21;98610.88;4966263;28;20121;-54
2021/12/29 07:50:15;;;;;;;15.88;2.22;;;;;;;6.99;84.32;98602.31;4966304;28;20051;-50
2021/12/29 07:52:56;;;;;;;;;;;;;;;6.93;85.52;98598.94;4967050;28;20499;-57
2021/12/29 07:55:23;;;;;;;8.70;2.10;;;;;;;6.95;85.79;98593.75;4962777;28;19930;-55
2021/12/29 07:57:49;;;;;;;9.95;2.40;;;;;;;7.00;83.85;98592.00;4964054;28;20051;-50
2021/12/29 08:00:16;;;;;;;6.57;2.88;;;;;;;6.99;84.66;98597.16;4968830;28;20101;-54
2021/12/29 08:02:44;;;;;;;10.25;2.05;;;;;;;7.02;85.47;98586.81;4962999;28;20051;-55
2021/12/29 08:05:12;;;;;;;8.30;2.53;;;;;;;7.02;85.81;98586.81;4964263;28;20058;-50
2021/12/29 08:07:46;;;;;;;5.05;2.22;;;;;;;7.07;85.19;98587.63;4962955;28;20113;-52
2021/12/29 08:10:13;;;;;;;7.28;2.00;;;;;;;7.07;85.41;98590.22;4962239;28;20094;-53
2021/12/29 08:12:40;;;;;;;9.30;2.58;;;;;;;7.08;84.91;98586.75;4961281;28;20090;-54
2021/12/29 08:15:07;;;;;;;6.50;2.33;;;;;;;7.07;85.32;98572.19;4963310;28;20051;-52
2021/12/29 08:17:35;;;;;;;4.40;1.90;;;;;;;7.13;84.31;98569.50;4963469;28;20655;-52
2021/12/29 08:20:04;;;;;;;10.52;3.45;;;;;;;7.16;84.29;98564.34;4967691;28;20054;-53
2021/12/29 08:22:30;;;;;;;5.30;2.58;;;;;;;7.18;85.09;98567.75;4973927;28;20055;-50
2021/12/29 08:24:57;;;;;;;9.85;2.88;;;;;;;7.17;85.06;98566.03;4967283;28;20039;-54
2021/12/29 08:27:24;;;;;;;14.10;2.42;;;;;;;7.20;84.50;98566.00;4969534;28;20051;-52
2021/12/29 08:29:51;;;;;;;10.55;2.83;;;;;;;7.23;84.54;98572.00;4964597;28;20050;-56
2021/12/29 08:32:18;;;;;;;11.50;3.90;;;;;;;7.25;85.60;98541.91;4964736;28;21161;-55
2021/12/29 08:34:44;;;;;;;11.40;3.25;;;;;;;7.25;84.59;98537.63;4960943;28;20491;-49
2021/12/29 08:37:15;;;;;;;7.80;3.35;;;;;;;7.28;85.34;98539.28;4960143;28;20507;-56
2021/12/29 08:39:42;;;;;;;4.85;2.28;;;;;;;7.29;85.52;98530.69;4962403;28;20055;-55
2021/12/29 08:42:08;;;;;;;6.68;1.85;;;;;;;7.33;85.87;98529.78;4963319;28;20126;-58
2021/12/29 08:44:36;;;;;;;8.90;2.92;;;;;;;7.32;85.67;98528.06;4964095;28;20128;-53
2021/12/29 08:47:03;;;;;;;8.98;2.80;;;;;;;7.35;84.39;98517.72;4956678;28;20091;-52
2021/12/29 08:49:30;;;;;;;8.43;2.55;;;;;;;7.32;84.88;98517.78;4958546;28;20058;-55
2021/12/29 08:51:57;;;;;;;8.65;2.75;;;;;;;7.35;86.05;98517.72;4959796;28;20059;-54
2021/12/29 08:54:27;;;;;;;9.50;2.83;;;;;;;7.38;84.80;98522.84;4974165;28;20125;-50
2021/12/29 08:56:54;;;;;;;8.95;2.50;;;;;;;7.40;85.87;98526.22;4962740;28;20051;-51
2021/12/29 08:59:21;;;;;;;8.48;2.42;;;;;;;7.42;84.51;98521.06;4959408;28;20047;-51
2021/12/29 09:01:48;;;;;;;7.70;2.67;;;;;;;7.41;85.04;98530.53;4957798;28;20134;-54
2021/12/29 09:04:16;;;;;;;7.05;2.10;;;;;;;7.43;86.12;98526.19;4964777;28;20047;-51
2021/12/29 09:06:42;;;;;;;4.72;2.22;;;;;;;7.45;86.27;98534.78;4964306;28;20110;-52
2021/12/29 09:09:09;;;;;;;7.50;2.22;;;;;;;7.49;85.81;98534.72;4956919;28;20054;-52
2021/12/29 09:11:35;;;;;;;5.25;1.52;;;;;;;7.50;86.06;98515.81;4964611;28;20050;-53
2021/12/29 09:14:03;;;;;;;5.30;2.28;;;;;;;7.51;85.72;98518.38;4965493;28;20039;-53
2021/12/29 09:16:30;;;;;;;3.78;1.98;;;;;;;7.51;86.02;98522.66;4965219;28;20047;-55
2021/12/29 09:18:57;;;;;;;4.10;1.75;;;;;;;7.52;86.32;98514.06;4964545;28;20046;-51
2021/12/29 09:21:26;;;;;;;3.13;1.42;;;;;;;7.55;85.47;98514.88;4962155;28;20141;-55
2021/12/29 09:23:53;;;;;;;5.13;1.27;;;;;;;7.59;85.23;98505.34;4964414;28;20758;-54
2021/12/29 09:26:20;;;;;;;5.35;2.20;;;;;;;7.63;86.16;98488.97;4960663;28;20488;-51
2021/12/29 09:28:48;;;;;;;5.60;1.92;;;;;;;7.64;85.82;98475.22;4966901;28;20427;-52
2021/12/29 09:31:16;;;;;;;2.90;0.80;;;;;;;7.69;85.11;98478.56;4968962;28;20055;-53
2021/12/29 09:33:43;;;;;;;2.80;1.13;;;;;;;7.71;86.23;98473.41;4966560;28;20148;-53
2021/12/29 09:36:10;;;;;;;5.68;1.50;;;;;;;7.76;85.42;98470.72;4963045;28;20121;-55
2021/12/29 09:38:40;;;;;;;2.65;0.73;;;;;;;7.77;85.75;98469.88;4977765;28;20447;-52
2021/12/29 09:41:11;;;;;;;4.53;1.25;;;;;;;7.80;86.14;98485.28;4968529;28;20058;-51
2021/12/29 09:43:38;;;;;;;5.90;1.80;;;;;;;7.82;85.45;98480.94;4966761;28;20058;-55
2021/12/29 09:46:06;;;;;;;4.07;1.58;;;;;;;7.83;85.63;98456.84;4969479;28;20074;-53
2021/12/29 09:48:34;;;;;;;3.95;1.75;;;;;;;7.87;85.12;98463.66;4968142;28;20057;-52
2021/12/29 09:51:03;;;;;;;3.08;1.33;;;;;;;7.92;86.01;98455.84;4961830;28;20062;-52
2021/12/29 09:53:30;;;;;;;3.90;1.63;;;;;;;7.94;85.81;98439.47;4956768;28;20070;-53
2021/12/29 09:55:56;;;;;;;5.57;1.73;;;;;;;7.98;85.14;98435.97;4952908;28;20055;-54
2021/12/29 09:58:24;;;;;;;5.18;1.70;;;;;;;8.01;85.62;98423.91;4957514;28;20046;-53
2021/12/29 10:00:56;;;;;;;3.22;2.10;;;;;;;8.05;86.04;98425.56;4961169;28;20066;-50
2021/12/29 10:03:25;;;;;;;2.25;0.80;;;;;;;8.10;86.28;98431.47;4964358;28;20066;-52
2021/12/29 10:05:56;;;;;;;2.80;1.98;;;;;;;8.17;86.37;98414.16;4964296;28;20058;-53
2021/12/29 10:08:29;;;;;;;3.20;0.88;;;;;;;8.19;85.98;98402.06;4963222;28;20101;-50
2021/12/29 10:10:59;;;;;;;1.65;1.05;;;;;;;8.26;85.52;98387.31;4962236;28;20054;-53
2021/12/29 10:13:30;;;;;;;3.30;0.60;;;;;;;8.33;87.06;98388.91;4958402;28;20055;-56
2021/12/29 10:16:07;;;;;;;1.35;0.50;;;;;;;8.40;87.08;98389.63;4945936;28;20396;-49
2021/12/29 10:18:37;;;;;;;2.35;0.80;;;;;;;8.51;86.40;98428.13;4945039;28;20047;-52
2021/12/29 10:21:07;;;;;;;1.45;0.70;;;;;;;8.59;86.98;98423.69;4950252;28;20079;-57
2021/12/29 10:23:39;;;;;;;2.53;1.13;;;;;;;8.66;85.37;98427.84;4960467;28;20082;-50
2021/12/29 10:26:29;;;;;;;3.97;1.10;;;;;;;8.73;86.33;98423.38;4960631;28;20063;-54
2021/12/29 10:29:00;;;;;;;;;;;;;;;8.73;86.84;98426.81;4955511;28;20063;-53
2021/12/29 10:31:31;;;;;;;3.60;0.52;;;;;;;8.85;86.71;98432.59;4959722;28;19926;-50
2021/12/29 10:34:01;;;;;;;2.97;1.30;;;;;;;8.91;86.53;98422.13;4957552;28;20711;-52
2021/12/29 10:36:37;;;;;;;4.13;1.50;;;;;;;8.98;86.49;98413.38;4961278;28;20122;-56
2021/12/29 10:39:10;;;;;;;3.47;1.00;;;;;;;9.09;86.21;98404.53;4955231;28;20428;-51
2021/12/29 10:41:58;;;;;;;1.85;1.23;;;;;;;9.16;86.77;98400.06;4959891;28;20050;-53
2021/12/29 10:44:29;;;;;;;2.05;0.85;;;;;;;9.26;86.75;98391.22;4960757;28;20050;-55
2021/12/29 10:46:58;;;;;;;1.75;0.65;;;;;;;9.35;86.30;98395.28;4965010;28;20114;-50
2021/12/29 10:49:27;;;;;;;2.67;0.88;;;;;;;9.42;86.72;98396.84;4965791;28;20054;-54
2021/12/29 10:51:57;;;;;;;2.20;0.65;;;;;;;9.50;86.26;98400.09;4963192;28;21192;-50
2021/12/29 10:54:27;;;;;;;1.85;0.43;;;;;;;9.56;86.50;98409.41;4962153;28;20406;-55
2021/12/29 10:57:05;;;;;;;1.95;0.55;;;;;;;9.59;85.93;98398.19;4962093;28;20141;-57
2021/12/29 10:59:37;;;;;;;2.13;0.88;;;;;;;9.66;86.04;98399.69;4962439;28;20116;-53
2021/12/29 11:02:05;;;;;;;2.20;0.85;;;;;;;9.69;86.18;98391.88;4962727;28;20185;-51
2021/12/29 11:04:32;;;;;;;2.03;1.25;;;;;;;9.72;86.14;98389.22;4962788;28;20046;-55
2021/12/29 11:07:01;;;;;;;4.55;1.75;;;;;;;9.78;86.34;98388.19;4964532;28;20506;-54
2021/12/29 11:09:32;;;;;;;10.60;3.97;;;;;;;9.81;86.56;98392.44;4968504;28;20053;-54
2021/12/29 11:12:02;;;;;;;5.38;2.25;;;;;;;9.89;86.46;98380.16;4960213;28;20550;-50
2021/12/29 11:14:32;;;;;;;4.53;2.20;;;;;;;9.93;85.51;98381.75;4965664;28;20085;-50
2021/12/29 11:17:04;;;;;;;;;;;;;;;9.91;86.63;98386.16;4959988;28;20055;-52
2021/12/29 11:19:31;;;;;;;6.40;1.65;;;;;;;10.02;86.70;98391.00;4962941;28;19929;-51
2021/12/29 11:22:13;;;;;;;7.63;2.55;;;;;;;10.08;85.88;98390.00;4965949;28;20051;-56
2021/12/29 11:24:42;;;;;;;24.95;9.02;;;;;;;10.17;85.44;98394.94;4961404;28;20035;-51
2021/12/29 11:27:13;;;;;;;16.58;7.25;;;;;;;10.24;85.61;98383.50;4956982;28;20055;-54
2021/12/29 11:30:03;;;;;;;21.67;6.63;;;;;;;10.30;86.06;98382.47;4961232;28;20105;-46
2021/12/29 11:32:33;;;;;;;31.98;11.45;;;;;;;10.39;86.11;98374.47;4959409;28;20109;-54
2021/12/29 11:35:19;;;;;;;19.45;8.50;;;;;;;10.46;85.61;98385.53;4960412;28;20101;-58
2021/12/29 11:37:52;;;;;;;13.45;5.18;;;;;;;10.53;86.15;98381.88;4967776;28;20110;-56
2021/12/29 11:40:23;;;;;;;8.73;3.25;;;;;;;10.60;86.06;98387.69;4943504;28;20054;-52
2021/12/29 11:42:50;;;;;;;3.15;1.60;;;;;;;10.65;85.83;98398.78;4964911;28;20043;-56
2021/12/29 11:45:18;;;;;;;2.28;1.15;;;;;;;10.70;85.64;98401.22;4960257;28;20565;-57
2021/12/29 11:47:47;;;;;;;1.40;0.55;;;;;;;10.75;86.17;98391.59;4963946;28;20669;-52